Time;durP1;ratioP1;P1;durP2;ratioP2;P2;SDS_P1;SDS_P2;PMS_P1;PMS_P2;Temp;Humidity;BMP_temperature;BMP_pressure;BME280_temperature;BME280_humidity;BME280_pressure;Samples;Min_cycle;Max_cycle;Signal;HPM_P1;HPM_P2
2022/06/18 00:00:17;;;;;;;2.70;1.00;;;23.30;87.50;;;;;;5035208;28;20025;-87
2022/06/18 00:02:43;;;;;;;3.53;1.10;;;23.30;87.60;;;;;;5053028;28;20013;-88
2022/06/18 00:05:13;;;;;;;6.60;1.10;;;23.30;87.60;;;;;;5052879;28;20067;-87
2022/06/18 00:07:43;;;;;;;2.47;1.10;;;23.30;87.40;;;;;;5034999;28;20021;-87
2022/06/18 00:10:14;;;;;;;2.15;1.15;;;23.30;87.50;;;;;;5035059;28;20025;-87
2022/06/18 00:15:28;;;;;;;;;;;23.30;87.60;;;;;;5053898;28;20040;-87
2022/06/18 00:17:54;;;;;;;3.72;1.27;;;23.30;87.60;;;;;;5035110;28;19912;-87
2022/06/18 00:20:22;;;;;;;1.98;1.20;;;23.30;87.60;;;;;;5035252;28;20039;-87
2022/06/18 00:22:51;;;;;;;2.33;1.15;;;23.20;87.60;;;;;;5035245;28;20027;-87
2022/06/18 00:25:26;;;;;;;2.00;0.95;;;23.20;87.60;;;;;;5053101;28;20036;-87
2022/06/18 00:27:54;;;;;;;3.00;1.00;;;23.20;87.70;;;;;;5053183;28;20396;-87
2022/06/18 00:30:21;;;;;;;2.17;1.02;;;23.20;87.70;;;;;;5035099;28;20116;-87
2022/06/18 00:32:47;;;;;;;2.80;1.20;;;23.20;87.90;;;;;;5053058;28;20048;-87
2022/06/18 00:35:15;;;;;;;3.85;1.05;;;23.20;87.80;;;;;;5034983;28;20029;-87
2022/06/18 00:37:41;;;;;;;2.65;0.95;;;23.20;87.80;;;;;;5052935;28;20070;-88
2022/06/18 00:40:31;;;;;;;4.47;1.20;;;23.10;87.80;;;;;;5034843;28;20381;-87
2022/06/18 00:42:59;;;;;;;3.20;1.10;;;23.10;87.90;;;;;;5034975;28;20388;-87
2022/06/18 00:45:28;;;;;;;2.15;0.98;;;23.10;87.90;;;;;;5052693;28;20033;-87
2022/06/18 00:48:04;;;;;;;2.08;1.20;;;23.10;88.00;;;;;;5034888;28;20029;-87
2022/06/18 00:50:38;;;;;;;3.53;0.90;;;23.10;88.10;;;;;;5056587;28;20021;-87
2022/06/18 00:53:07;;;;;;;;;;;23.10;88.00;;;;;;5039091;28;20025;-87
2022/06/18 00:55:45;;;;;;;3.15;1.20;;;23.10;88.10;;;;;;5038563;28;20327;-88
2022/06/18 00:58:29;;;;;;;2.58;0.88;;;23.10;88.00;;;;;;5038548;28;20310;-87
2022/06/18 01:00:56;;;;;;;2.08;1.05;;;23.10;88.00;;;;;;5038446;28;20441;-87
2022/06/18 01:03:26;;;;;;;1.73;1.10;;;23.10;88.00;;;;;;5056367;28;20103;-87
2022/06/18 01:05:54;;;;;;;3.05;0.90;;;23.00;88.80;;;;;;5056253;28;20040;-87
2022/06/18 01:08:22;;;;;;;2.53;1.15;;;23.00;88.10;;;;;;5038296;28;20032;-87
2022/06/18 01:10:51;;;;;;;2.15;1.10;;;23.00;88.10;;;;;;5038317;28;20392;-87
2022/06/18 01:13:21;;;;;;;1.63;1.00;;;23.00;88.10;;;;;;5056118;28;20384;-87
2022/06/18 01:15:48;;;;;;;3.75;1.08;;;23.00;88.20;;;;;;5038313;28;20025;-87
2022/06/18 01:18:14;;;;;;;1.65;0.90;;;23.00;88.20;;;;;;5056069;28;20590;-87
2022/06/18 01:20:52;;;;;;;2.38;1.33;;;23.00;88.30;;;;;;5038078;28;20492;-87
2022/06/18 01:23:53;;;;;;;2.92;1.00;;;23.00;88.30;;;;;;5038109;28;20099;-87
2022/06/18 01:26:20;;;;;;;1.35;0.98;;;22.90;88.30;;;;;;5038172;28;20393;-87
2022/06/18 01:28:46;;;;;;;3.33;1.00;;;22.90;88.40;;;;;;5037952;28;20021;-87
2022/06/18 01:31:12;;;;;;;3.10;1.05;;;22.90;88.40;;;;;;5038007;28;20112;-87
2022/06/18 01:33:38;;;;;;;4.60;1.08;;;22.90;88.40;;;;;;5038032;28;20048;-88
2022/06/18 01:36:08;;;;;;;3.08;0.88;;;22.90;88.40;;;;;;5037809;28;20024;-87
2022/06/18 01:38:39;;;;;;;1.50;0.90;;;22.90;88.40;;;;;;5055776;28;20112;-87
2022/06/18 01:44:00;;;;;;;4.15;0.82;;;22.90;88.50;;;;;;5055735;28;20032;-87
2022/06/18 01:46:27;;;;;;;1.48;1.13;;;22.90;88.60;;;;;;5056146;28;20017;-87
2022/06/18 01:48:54;;;;;;;2.78;0.98;;;22.90;88.70;;;;;;5055615;28;20025;-87
2022/06/18 01:51:29;;;;;;;4.28;1.02;;;22.80;88.70;;;;;;5037576;28;20033;-88
2022/06/18 01:54:17;;;;;;;3.17;1.00;;;22.80;88.70;;;;;;5037634;28;20098;-88
2022/06/18 01:56:47;;;;;;;6.45;1.02;;;22.80;88.80;;;;;;5055266;28;20108;-87
2022/06/18 01:59:25;;;;;;;2.45;0.90;;;22.80;88.80;;;;;;5037369;28;20459;-87
2022/06/18 02:01:51;;;;;;;5.72;1.23;;;22.80;88.90;;;;;;5036675;28;20396;-86
2022/06/18 02:04:18;;;;;;;3.47;1.10;;;22.80;88.90;;;;;;5037412;28;20025;-88
2022/06/18 02:06:45;;;;;;;2.72;0.90;;;22.70;88.80;;;;;;5037302;28;20484;-87
2022/06/18 02:09:41;;;;;;;2.53;0.98;;;22.70;88.90;;;;;;5055069;28;20028;-87
2022/06/18 02:12:14;;;;;;;2.05;1.13;;;22.70;89.00;;;;;;5037265;28;20029;-87
2022/06/18 02:14:44;;;;;;;3.65;1.23;;;22.70;89.70;;;;;;5037120;28;20029;-87
2022/06/18 02:17:17;;;;;;;1.70;1.30;;;22.70;89.00;;;;;;5037139;28;20491;-87
2022/06/18 02:19:52;;;;;;;1.05;0.90;;;22.70;89.00;;;;;;5037028;28;20365;-87
2022/06/18 02:22:20;;;;;;;9.45;1.23;;;22.70;89.10;;;;;;5055237;28;20032;-87
2022/06/18 02:24:46;;;;;;;1.77;1.00;;;22.70;89.10;;;;;;5037441;28;20497;-87
2022/06/18 02:27:14;;;;;;;2.28;1.08;;;22.70;89.10;;;;;;5037046;28;20021;-87
2022/06/18 02:29:42;;;;;;;2.83;1.08;;;22.70;89.20;;;;;;5036950;28;20373;-88
2022/06/18 02:32:32;;;;;;;3.28;1.17;;;22.70;89.20;;;;;;5054606;28;20025;-87
2022/06/18 02:34:58;;;;;;;2.00;1.10;;;22.60;89.20;;;;;;5029509;28;20097;-87
2022/06/18 02:37:27;;;;;;;2.72;1.30;;;22.70;89.30;;;;;;5036606;28;20028;-87
2022/06/18 02:40:02;;;;;;;3.47;1.10;;;22.70;89.40;;;;;;5047847;28;20550;-87
2022/06/18 02:42:32;;;;;;;3.10;1.08;;;22.60;89.40;;;;;;5034516;28;20362;-87
2022/06/18 02:44:59;;;;;;;3.17;1.00;;;22.60;89.40;;;;;;5034786;28;20025;-87
2022/06/18 02:47:25;;;;;;;2.15;1.15;;;22.60;89.40;;;;;;5016583;28;20033;-87
2022/06/18 02:49:58;;;;;;;1.63;0.93;;;22.60;89.50;;;;;;5016594;28;20389;-87
2022/06/18 02:52:27;;;;;;;2.47;1.10;;;22.50;89.50;;;;;;5016631;28;20036;-87
2022/06/18 02:55:00;;;;;;;2.78;1.38;;;22.60;89.50;;;;;;5034208;28;20432;-87
2022/06/18 02:57:28;;;;;;;3.95;1.08;;;22.60;90.10;;;;;;5016565;28;20435;-87
2022/06/18 02:59:54;;;;;;;4.28;1.05;;;22.50;89.50;;;;;;5016333;28;20029;-87
2022/06/18 03:02:20;;;;;;;1.30;0.98;;;22.50;89.60;;;;;;5034180;28;20025;-87
2022/06/18 03:04:46;;;;;;;1.50;0.95;;;22.50;89.60;;;;;;5016711;28;20029;-88
2022/06/18 03:07:11;;;;;;;2.03;0.95;;;22.50;89.60;;;;;;5016522;28;20488;-88
2022/06/18 03:12:06;;;;;;;1.75;1.10;;;22.50;89.60;;;;;;5016367;28;20048;-87
2022/06/18 03:12:23;;;;;;;3.95;1.13;;;22.50;89.70;;;;;;5033960;28;20097;-87
2022/06/18 03:14:48;;;;;;;2.65;1.20;;;22.50;89.60;;;;;;5016235;28;20056;-87
2022/06/18 03:17:14;;;;;;;3.83;1.02;;;22.50;89.70;;;;;;5034236;28;20056;-87
2022/06/18 03:19:46;;;;;;;1.08;0.90;;;22.50;89.70;;;;;;5016081;28;20034;-87
2022/06/18 03:22:14;;;;;;;2.85;1.30;;;22.50;89.70;;;;;;5033869;28;20049;-87
2022/06/18 03:24:43;;;;;;;3.05;0.90;;;22.50;89.70;;;;;;5016002;28;20028;-88
2022/06/18 03:27:13;;;;;;;2.63;1.15;;;22.50;89.70;;;;;;5033675;28;20021;-87
2022/06/18 03:29:39;;;;;;;3.45;0.95;;;22.40;89.70;;;;;;5034347;28;20021;-87
2022/06/18 03:32:05;;;;;;;3.35;1.15;;;22.40;89.70;;;;;;5033929;28;20036;-88
2022/06/18 03:34:31;;;;;;;1.52;1.10;;;22.40;89.70;;;;;;5015867;28;20025;-87
2022/06/18 03:36:56;;;;;;;3.08;0.90;;;22.40;89.70;;;;;;5033492;28;20026;-87
2022/06/18 03:39:23;;;;;;;2.60;1.20;;;22.40;89.70;;;;;;5033438;28;20072;-87
2022/06/18 03:41:49;;;;;;;7.45;1.27;;;22.40;89.80;;;;;;5016101;28;20443;-87
2022/06/18 03:44:14;;;;;;;4.03;1.13;;;22.40;89.80;;;;;;5033683;28;20022;-87
2022/06/18 03:46:43;;;;;;;8.68;1.25;;;22.40;89.80;;;;;;5033499;28;20079;-87
2022/06/18 03:49:18;;;;;;;3.15;1.17;;;22.40;89.80;;;;;;5015766;28;20124;-87
2022/06/18 03:51:44;;;;;;;3.17;1.10;;;22.40;89.90;;;;;;5015657;28;20061;-87
2022/06/18 03:54:10;;;;;;;2.08;0.93;;;22.40;89.90;;;;;;5015708;28;20060;-87
2022/06/18 03:56:36;;;;;;;1.38;0.82;;;22.40;90.00;;;;;;5015767;28;20025;-87
2022/06/18 03:59:04;;;;;;;3.13;1.17;;;22.40;90.00;;;;;;5015463;28;20033;-87
2022/06/18 04:01:33;;;;;;;2.97;1.20;;;22.40;90.00;;;;;;5033218;28;20018;-88
2022/06/18 04:03:59;;;;;;;5.07;1.00;;;22.30;90.00;;;;;;5015442;28;20436;-87
2022/06/18 04:06:25;;;;;;;2.72;1.10;;;22.30;90.30;;;;;;5015536;28;20071;-87
2022/06/18 04:08:51;;;;;;;3.03;1.10;;;22.30;89.90;;;;;;5016342;28;20128;-87
2022/06/18 04:11:16;;;;;;;3.05;0.88;;;22.40;90.00;;;;;;5015457;28;20123;-88
2022/06/18 04:13:42;;;;;;;1.75;1.02;;;22.30;90.00;;;;;;5015446;28;20025;-87
2022/06/18 04:16:10;;;;;;;3.22;1.10;;;22.30;90.00;;;;;;5015296;28;20060;-87
2022/06/18 04:18:36;;;;;;;2.22;1.00;;;22.30;90.00;;;;;;5015539;28;20507;-86
2022/06/18 04:21:03;;;;;;;4.03;1.20;;;22.30;90.00;;;;;;5015304;28;20021;-87
2022/06/18 04:23:29;;;;;;;4.47;1.00;;;22.30;90.00;;;;;;5016302;28;20032;-87
2022/06/18 04:25:55;;;;;;;2.03;0.98;;;22.30;90.00;;;;;;5037059;28;20035;-87
2022/06/18 04:28:21;;;;;;;2.97;0.98;;;22.30;90.10;;;;;;5019229;28;20112;-86
2022/06/18 04:30:47;;;;;;;1.55;1.00;;;22.30;90.10;;;;;;5037252;28;20104;-87
2022/06/18 04:33:13;;;;;;;2.13;1.00;;;22.30;90.10;;;;;;5019225;28;20021;-87
2022/06/18 04:35:39;;;;;;;1.35;1.10;;;22.30;90.20;;;;;;5037077;28;20037;-86
2022/06/18 04:38:06;;;;;;;4.40;1.50;;;22.30;90.20;;;;;;5019125;28;20362;-87
2022/06/18 04:40:33;;;;;;;2.92;1.20;;;22.30;90.20;;;;;;5030670;28;20106;-87
2022/06/18 04:43:00;;;;;;;3.70;1.42;;;22.30;90.20;;;;;;5038746;28;20111;-87
2022/06/18 04:45:26;;;;;;;3.78;1.40;;;22.30;90.30;;;;;;5038830;28;20025;-87
2022/06/18 04:47:52;;;;;;;2.88;1.25;;;22.30;90.30;;;;;;5038691;28;20374;-87
2022/06/18 04:50:22;;;;;;;2.00;1.13;;;22.30;90.30;;;;;;5038763;28;20094;-87
2022/06/18 04:52:48;;;;;;;3.17;1.30;;;22.30;90.30;;;;;;5056526;28;20051;-86
2022/06/18 04:55:14;;;;;;;1.48;1.20;;;22.30;90.40;;;;;;5038470;28;20449;-87
2022/06/18 04:57:39;;;;;;;9.23;1.45;;;22.30;90.40;;;;;;5039273;28;20021;-87
2022/06/18 05:00:07;;;;;;;3.05;1.25;;;22.30;90.80;;;;;;5056370;28;20357;-87
2022/06/18 05:02:35;;;;;;;2.53;1.17;;;22.20;90.50;;;;;;5038439;28;20048;-87
2022/06/18 05:05:02;;;;;;;3.30;1.10;;;22.30;90.60;;;;;;5038306;28;20040;-87
2022/06/18 05:07:27;;;;;;;3.55;1.27;;;22.30;90.60;;;;;;5038423;28;20021;-87
2022/06/18 05:09:53;;;;;;;3.28;1.58;;;22.30;90.60;;;;;;5038311;28;20403;-87
2022/06/18 05:12:18;;;;;;;3.22;1.33;;;22.30;90.90;;;;;;5038302;28;20031;-87
2022/06/18 05:14:44;;;;;;;5.68;1.60;;;22.30;90.60;;;;;;5056641;28;20029;-88
2022/06/18 05:17:17;;;;;;;4.40;1.05;;;22.30;90.70;;;;;;5038771;28;20112;-87
2022/06/18 05:19:44;;;;;;;1.98;1.10;;;22.30;90.80;;;;;;5038384;28;20029;-88
2022/06/18 05:22:10;;;;;;;3.50;1.40;;;22.30;90.80;;;;;;5038157;28;20142;-87
2022/06/18 05:24:36;;;;;;;2.80;1.38;;;22.30;90.80;;;;;;5038378;28;20383;-87
2022/06/18 05:27:02;;;;;;;4.55;1.20;;;22.30;90.80;;;;;;5038076;28;20028;-87
2022/06/18 05:29:28;;;;;;;3.25;1.05;;;22.30;90.90;;;;;;5038237;28;20032;-87
2022/06/18 05:31:53;;;;;;;1.60;1.05;;;22.30;90.90;;;;;;5037877;28;20024;-87
2022/06/18 05:34:19;;;;;;;3.97;1.35;;;22.30;90.90;;;;;;5037786;28;20029;-87
2022/06/18 05:36:45;;;;;;;2.67;1.20;;;22.30;90.90;;;;;;5056014;28;20029;-87
2022/06/18 05:39:15;;;;;;;1.38;1.17;;;22.40;90.90;;;;;;5037612;28;20029;-87
2022/06/18 05:41:41;;;;;;;1.98;1.20;;;22.40;90.90;;;;;;5037687;28;20086;-87
2022/06/18 05:44:07;;;;;;;1.52;1.02;;;22.40;90.90;;;;;;5055751;28;20100;-87
2022/06/18 05:46:33;;;;;;;2.17;1.20;;;22.40;91.00;;;;;;5037683;28;20032;-87
2022/06/18 05:48:58;;;;;;;1.88;1.10;;;22.40;91.00;;;;;;5037575;28;20116;-87
2022/06/18 05:51:25;;;;;;;2.00;1.35;;;22.40;91.00;;;;;;5037685;28;20056;-87
2022/06/18 05:53:51;;;;;;;2.47;1.20;;;22.40;91.00;;;;;;5037498;28;20029;-87
2022/06/18 05:56:19;;;;;;;2.17;1.25;;;22.40;91.00;;;;;;5037422;28;20484;-87
2022/06/18 05:58:45;;;;;;;2.30;1.20;;;22.40;91.10;;;;;;5055108;28;20025;-87
2022/06/18 06:01:11;;;;;;;2.08;1.30;;;22.40;91.10;;;;;;5055189;28;20096;-87
2022/06/18 06:03:37;;;;;;;2.58;1.50;;;22.40;91.10;;;;;;5037477;28;20029;-87
2022/06/18 06:06:03;;;;;;;2.35;1.15;;;22.40;91.20;;;;;;5037424;28;20029;-87
2022/06/18 06:08:29;;;;;;;1.95;1.30;;;22.50;91.20;;;;;;5037185;28;20104;-87
2022/06/18 06:13:38;;;;;;;1.40;1.10;;;22.50;91.30;;;;;;5055616;28;20091;-87
2022/06/18 06:16:04;;;;;;;1.25;1.00;;;22.50;91.40;;;;;;5037030;28;20041;-87
2022/06/18 06:18:30;;;;;;;2.92;1.20;;;22.50;91.40;;;;;;5037016;28;20026;-87
2022/06/18 06:20:58;;;;;;;3.15;1.23;;;22.50;91.60;;;;;;5036912;28;20044;-86
2022/06/18 06:23:24;;;;;;;2.85;1.23;;;22.50;91.50;;;;;;5054788;28;20480;-87
2022/06/18 06:25:50;;;;;;;1.05;0.95;;;22.50;91.50;;;;;;5036840;28;20480;-86
2022/06/18 06:28:21;;;;;;;1.67;1.10;;;22.50;91.60;;;;;;5036765;28;20029;-87
2022/06/18 06:30:51;;;;;;;3.22;1.20;;;22.50;91.60;;;;;;5054636;28;20032;-87
2022/06/18 06:33:17;;;;;;;1.50;1.10;;;22.50;91.60;;;;;;5036621;28;20393;-87
2022/06/18 06:35:44;;;;;;;2.80;1.20;;;22.50;91.70;;;;;;5036547;28;20029;-87
2022/06/18 06:38:11;;;;;;;2.17;1.38;;;22.50;91.90;;;;;;5036888;28;20476;-87
2022/06/18 06:40:37;;;;;;;3.17;1.30;;;22.60;92.10;;;;;;5043747;28;20171;-86
2022/06/18 06:43:04;;;;;;;3.90;1.30;;;22.60;92.00;;;;;;5016675;28;20496;-87
2022/06/18 06:45:32;;;;;;;1.58;1.20;;;22.60;91.80;;;;;;5034649;28;20104;-87
2022/06/18 06:47:59;;;;;;;1.80;1.40;;;22.60;91.80;;;;;;5034028;28;20087;-86
2022/06/18 06:50:26;;;;;;;2.88;1.48;;;22.60;91.80;;;;;;5016631;28;20133;-86
2022/06/18 06:52:53;;;;;;;4.18;1.30;;;22.60;91.80;;;;;;5016530;28;20028;-86
2022/06/18 06:58:05;;;;;;;1.35;1.10;;;22.70;91.80;;;;;;5034772;28;20036;-87
2022/06/18 07:00:37;;;;;;;1.98;1.33;;;22.70;91.60;;;;;;5016454;28;20025;-87
2022/06/18 07:03:02;;;;;;;1.40;1.10;;;22.70;91.70;;;;;;5032866;28;20060;-87
2022/06/18 07:05:28;;;;;;;2.13;1.17;;;22.70;91.60;;;;;;5016416;28;20056;-86
2022/06/18 07:07:54;;;;;;;1.70;1.10;;;22.70;91.40;;;;;;5034046;28;20041;-86
2022/06/18 07:10:20;;;;;;;1.13;1.00;;;22.70;91.40;;;;;;5016304;28;20482;-86
2022/06/18 07:12:45;;;;;;;2.38;1.35;;;22.70;91.40;;;;;;5016382;28;20030;-86
2022/06/18 07:15:12;;;;;;;2.25;1.30;;;22.70;91.40;;;;;;5016200;28;20057;-86
2022/06/18 07:17:38;;;;;;;2.75;1.10;;;22.70;91.30;;;;;;5033857;28;20516;-86
2022/06/18 07:20:05;;;;;;;2.97;1.17;;;22.80;91.30;;;;;;5016164;28;20060;-86
2022/06/18 07:22:32;;;;;;;1.75;1.02;;;22.80;91.30;;;;;;5033844;28;20018;-86
2022/06/18 07:24:58;;;;;;;2.35;1.35;;;22.80;91.30;;;;;;5015976;28;20017;-87
2022/06/18 07:27:24;;;;;;;2.53;1.25;;;22.80;91.30;;;;;;5015885;28;20033;-87
2022/06/18 07:29:50;;;;;;;1.52;1.10;;;22.80;91.20;;;;;;5033684;28;20076;-86
2022/06/18 07:32:19;;;;;;;2.15;1.02;;;22.90;91.20;;;;;;5033652;28;20473;-87
2022/06/18 07:34:45;;;;;;;1.45;1.10;;;22.90;91.10;;;;;;5015847;28;20033;-87
2022/06/18 07:37:11;;;;;;;2.00;1.13;;;22.90;91.40;;;;;;5015788;28;20091;-87
2022/06/18 07:39:37;;;;;;;3.55;1.20;;;22.90;91.00;;;;;;5033589;28;20017;-86
2022/06/18 07:42:04;;;;;;;1.20;1.00;;;22.90;91.00;;;;;;5015845;28;20362;-87
2022/06/18 07:44:30;;;;;;;1.58;1.08;;;22.90;91.00;;;;;;5015794;28;20393;-86
2022/06/18 07:47:01;;;;;;;3.22;1.20;;;22.90;90.90;;;;;;5015712;28;20021;-86
2022/06/18 07:49:27;;;;;;;4.43;1.30;;;22.90;90.90;;;;;;5015734;28;20025;-87
2022/06/18 07:51:52;;;;;;;1.55;1.15;;;22.90;90.80;;;;;;5015618;28;20038;-86
2022/06/18 07:54:19;;;;;;;1.73;1.00;;;23.00;90.80;;;;;;5033352;28;20115;-86
2022/06/18 07:56:45;;;;;;;1.50;1.17;;;23.00;90.70;;;;;;5033211;28;20033;-86
2022/06/18 07:59:11;;;;;;;2.08;1.10;;;23.00;90.70;;;;;;5015525;28;20366;-86
2022/06/18 08:01:38;;;;;;;2.03;1.10;;;23.00;90.60;;;;;;5015520;28;20116;-87
2022/06/18 08:04:05;;;;;;;2.65;1.17;;;23.00;90.70;;;;;;5015586;28;20060;-86
2022/06/18 08:06:31;;;;;;;1.80;1.05;;;23.00;90.60;;;;;;5015451;28;20029;-87
2022/06/18 08:08:56;;;;;;;2.28;1.30;;;23.00;90.60;;;;;;5015502;28;20568;-87
2022/06/18 08:11:23;;;;;;;3.28;1.23;;;23.00;90.50;;;;;;5015497;28;20362;-87
2022/06/18 08:13:50;;;;;;;1.90;1.30;;;23.00;90.60;;;;;;5015449;28;20029;-87
2022/06/18 08:16:17;;;;;;;2.30;1.23;;;23.00;90.60;;;;;;5033297;28;20072;-87
2022/06/18 08:18:43;;;;;;;2.78;1.33;;;23.10;90.50;;;;;;5015397;28;20057;-87
2022/06/18 08:21:13;;;;;;;1.80;1.08;;;23.10;90.50;;;;;;5015306;28;20444;-86
2022/06/18 08:23:39;;;;;;;2.40;1.30;;;23.10;90.40;;;;;;5015381;28;20392;-86
2022/06/18 08:26:07;;;;;;;1.80;1.13;;;23.10;90.40;;;;;;5015314;28;20030;-87
2022/06/18 08:28:34;;;;;;;2.95;1.17;;;23.20;90.40;;;;;;5033024;28;20032;-87
2022/06/18 08:31:01;;;;;;;2.28;1.27;;;23.20;90.30;;;;;;5015196;28;20029;-85
2022/06/18 08:33:29;;;;;;;1.73;1.20;;;23.20;90.30;;;;;;5015216;28;20025;-87
2022/06/18 08:35:57;;;;;;;1.85;1.30;;;23.20;90.20;;;;;;5015078;28;20178;-87
2022/06/18 08:38:23;;;;;;;2.95;1.20;;;23.20;90.60;;;;;;5015182;28;20030;-87
2022/06/18 08:41:09;;;;;;;1.67;1.10;;;23.30;90.10;;;;;;5032645;28;20052;-86
2022/06/18 08:43:58;;;;;;;2.38;1.30;;;23.30;90.20;;;;;;5015143;28;20021;-87
2022/06/18 08:46:29;;;;;;;1.48;1.23;;;23.30;90.10;;;;;;4970375;28;20030;-87
2022/06/18 08:49:13;;;;;;;1.38;1.20;;;23.30;90.00;;;;;;5032795;28;20032;-86
2022/06/18 08:51:45;;;;;;;1.38;1.00;;;23.40;90.10;;;;;;5015111;28;20057;-86
2022/06/18 08:54:39;;;;;;;1.60;1.10;;;23.40;90.00;;;;;;5015573;28;20029;-86
2022/06/18 08:57:20;;;;;;;1.85;1.17;;;23.40;90.00;;;;;;5015046;28;20026;-86
2022/06/18 09:00:09;;;;;;;2.40;1.17;;;23.40;89.80;;;;;;5014877;28;20033;-86
2022/06/18 09:02:49;;;;;;;2.33;1.30;;;23.40;89.90;;;;;;5015068;28;20118;-87
2022/06/18 09:05:45;;;;;;;2.78;1.40;;;23.50;89.80;;;;;;5014964;28;20096;-86
2022/06/18 09:08:23;;;;;;;2.47;1.15;;;23.50;89.40;;;;;;5032726;28;20026;-86
2022/06/18 09:11:17;;;;;;;1.42;1.05;;;23.50;89.30;;;;;;5035314;28;20464;-87
2022/06/18 09:14:11;;;;;;;2.03;1.30;;;23.50;89.30;;;;;;5018415;28;20124;-87
2022/06/18 09:16:52;;;;;;;2.10;1.10;;;23.50;89.40;;;;;;5036153;28;20026;-87
2022/06/18 09:19:20;;;;;;;1.42;1.00;;;23.60;89.20;;;;;;5018318;28;20026;-87
2022/06/18 09:21:55;;;;;;;8.35;1.30;;;23.60;88.90;;;;;;5018390;28;20022;-87
2022/06/18 09:24:44;;;;;;;2.17;1.10;;;23.60;89.00;;;;;;5036068;28;20030;-86
2022/06/18 09:27:25;;;;;;;2.03;1.17;;;23.60;88.80;;;;;;5018328;28;20025;-87
2022/06/18 09:30:14;;;;;;;1.75;1.10;;;23.60;88.70;;;;;;5034710;28;20033;-87
2022/06/18 09:32:43;;;;;;;1.73;1.17;;;23.70;88.80;;;;;;5018215;28;20029;-87
2022/06/18 09:35:24;;;;;;;2.08;1.23;;;23.70;88.40;;;;;;5018050;28;20037;-88
2022/06/18 09:38:21;;;;;;;2.63;1.20;;;23.70;88.30;;;;;;5018061;28;20473;-87
2022/06/18 09:41:25;;;;;;;4.43;1.35;;;23.70;88.10;;;;;;5029599;28;20076;-87
2022/06/18 09:44:10;;;;;;;3.53;1.17;;;23.80;88.10;;;;;;5038071;28;20025;-86
2022/06/18 09:46:45;;;;;;;2.30;1.27;;;23.80;87.90;;;;;;5038251;28;20029;-87
2022/06/18 09:49:12;;;;;;;3.08;1.50;;;23.80;88.00;;;;;;5055847;28;20044;-87
2022/06/18 09:52:05;;;;;;;2.17;0.90;;;23.80;87.60;;;;;;5037645;28;20392;-87
2022/06/18 09:54:37;;;;;;;2.03;1.08;;;23.80;87.80;;;;;;5055696;28;20476;-87
2022/06/18 09:57:04;;;;;;;4.20;1.40;;;23.80;87.50;;;;;;5037400;28;20505;-87
2022/06/18 09:59:58;;;;;;;2.08;1.38;;;23.80;87.30;;;;;;5037418;28;20388;-86
2022/06/18 10:02:27;;;;;;;2.43;1.00;;;23.90;87.20;;;;;;5044503;28;20504;-86
2022/06/18 10:07:43;;;;;;;4.32;1.10;;;23.90;86.70;;;;;;5055802;28;20388;-87
2022/06/18 10:10:14;;;;;;;3.35;1.05;;;24.00;86.50;;;;;;5037183;28;20075;-88
2022/06/18 10:12:55;;;;;;;3.50;1.20;;;24.00;86.70;;;;;;5055096;28;20384;-87
2022/06/18 10:15:23;;;;;;;1.98;1.30;;;24.00;86.30;;;;;;5037180;28;20488;-87
2022/06/18 10:18:12;;;;;;;2.75;1.27;;;24.00;86.20;;;;;;5054939;28;20013;-87
2022/06/18 10:20:42;;;;;;;1.20;0.90;;;24.10;86.70;;;;;;5036602;28;20361;-87
2022/06/18 10:23:16;;;;;;;2.22;1.30;;;24.10;86.60;;;;;;5037453;28;20518;-87
2022/06/18 10:26:11;;;;;;;2.95;1.20;;;24.10;86.30;;;;;;5055012;28;20028;-86
2022/06/18 10:28:56;;;;;;;2.03;1.00;;;24.10;86.70;;;;;;5036925;28;20029;-86
2022/06/18 10:31:36;;;;;;;1.90;1.05;;;24.20;86.50;;;;;;5036876;28;20029;-87
2022/06/18 10:34:16;;;;;;;1.50;1.20;;;24.20;86.40;;;;;;5054694;28;20064;-86
2022/06/18 10:36:53;;;;;;;5.15;1.30;;;24.20;86.30;;;;;;5036735;28;20064;-87
2022/06/18 10:39:46;;;;;;;4.75;1.13;;;24.20;86.30;;;;;;5036634;28;20021;-87
2022/06/18 10:42:15;;;;;;;1.75;0.93;;;24.30;86.20;;;;;;5036672;28;20511;-88
2022/06/18 10:44:52;;;;;;;2.28;0.93;;;24.30;86.40;;;;;;5054509;28;20404;-87
2022/06/18 10:47:18;;;;;;;2.20;1.10;;;24.30;86.30;;;;;;5036682;28;20021;-86
2022/06/18 10:49:58;;;;;;;2.55;1.00;;;24.30;85.90;;;;;;5036553;28;20044;-87
2022/06/18 10:52:24;;;;;;;3.00;1.10;;;24.30;86.10;;;;;;5036144;28;20036;-87
2022/06/18 10:55:03;;;;;;;2.55;1.10;;;24.30;85.90;;;;;;5036649;28;20116;-87
2022/06/18 10:57:29;;;;;;;2.78;1.00;;;24.30;85.80;;;;;;5036437;28;20111;-87
2022/06/18 10:59:55;;;;;;;2.63;1.02;;;24.40;85.70;;;;;;5054371;28;20488;-86
2022/06/18 11:02:33;;;;;;;1.90;0.98;;;24.40;85.70;;;;;;5036252;28;20021;-87
2022/06/18 11:05:03;;;;;;;1.73;0.90;;;24.40;85.70;;;;;;5036170;28;20025;-87
2022/06/18 11:07:33;;;;;;;1.52;1.10;;;24.40;85.60;;;;;;5035949;28;20505;-86
2022/06/18 11:10:22;;;;;;;3.70;1.33;;;24.40;85.50;;;;;;5036078;28;20450;-87
2022/06/18 11:12:56;;;;;;;2.97;1.33;;;24.40;85.20;;;;;;5036246;28;20534;-87
2022/06/18 11:15:25;;;;;;;8.13;1.35;;;24.50;85.20;;;;;;5035878;28;20127;-86
2022/06/18 11:17:51;;;;;;;1.63;1.10;;;24.50;85.10;;;;;;5035960;28;20472;-87
2022/06/18 11:20:19;;;;;;;2.95;1.20;;;24.50;85.00;;;;;;5035924;28;20017;-88
2022/06/18 11:23:03;;;;;;;2.15;1.00;;;24.50;85.00;;;;;;5053782;28;20056;-87
2022/06/18 11:25:44;;;;;;;2.47;1.20;;;24.50;84.70;;;;;;5035841;28;20107;-87
2022/06/18 11:28:18;;;;;;;1.77;0.95;;;24.60;84.80;;;;;;5053719;28;20029;-87
2022/06/18 11:30:47;;;;;;;4.65;1.05;;;24.50;84.40;;;;;;5035813;28;20063;-87
2022/06/18 11:33:32;;;;;;;5.30;1.00;;;24.60;84.30;;;;;;5035397;28;20031;-86
2022/06/18 11:36:26;;;;;;;4.55;1.05;;;24.60;84.10;;;;;;5053693;28;20357;-87
2022/06/18 11:38:57;;;;;;;2.63;1.20;;;24.60;84.10;;;;;;5021915;28;20083;-87
2022/06/18 11:41:38;;;;;;;2.55;1.02;;;24.60;83.80;;;;;;5035489;28;20126;-86
2022/06/18 11:44:19;;;;;;;3.83;1.02;;;24.60;83.70;;;;;;5053440;28;20024;-87
2022/06/18 11:47:04;;;;;;;4.15;1.05;;;24.70;83.90;;;;;;5053409;28;20104;-87
2022/06/18 11:49:31;;;;;;;;;;;24.70;83.30;;;;;;5036129;28;20476;-87
2022/06/18 11:52:08;;;;;;;8.35;1.20;;;24.70;83.40;;;;;;5035440;28;19948;-88
2022/06/18 11:54:52;;;;;;;5.25;1.13;;;24.70;83.50;;;;;;5035427;28;20480;-87
2022/06/18 11:57:23;;;;;;;2.42;1.15;;;24.70;83.30;;;;;;5053642;28;20472;-86
2022/06/18 11:59:58;;;;;;;6.50;1.55;;;24.80;83.60;;;;;;5035364;28;20021;-87
2022/06/18 12:02:37;;;;;;;4.57;1.42;;;24.70;83.10;;;;;;5053301;28;20017;-87
2022/06/18 12:05:11;;;;;;;4.40;1.40;;;24.80;83.70;;;;;;5053260;28;20410;-87
2022/06/18 12:07:44;;;;;;;5.15;1.30;;;24.80;83.20;;;;;;5035352;28;20025;-86
2022/06/18 12:10:15;;;;;;;5.03;1.40;;;24.80;83.00;;;;;;5035341;28;20025;-87
2022/06/18 12:13:02;;;;;;;5.05;1.10;;;24.90;83.00;;;;;;5053353;28;20055;-86
2022/06/18 12:15:56;;;;;;;25.50;3.05;;;24.90;83.90;;;;;;5035161;28;20396;-88
2022/06/18 12:18:43;;;;;;;8.80;1.92;;;24.90;83.20;;;;;;5035167;28;20473;-87
2022/06/18 12:21:18;;;;;;;7.00;1.60;;;24.90;83.20;;;;;;5052952;28;20054;-87
2022/06/18 12:23:43;;;;;;;;;;;24.90;83.30;;;;;;5053404;28;20036;-87
2022/06/18 12:26:26;;;;;;;4.57;1.55;;;24.90;83.20;;;;;;5035062;28;19905;-87
2022/06/18 12:29:16;;;;;;;8.48;1.73;;;25.00;83.30;;;;;;5035009;28;20059;-87
2022/06/18 12:32:01;;;;;;;11.07;1.85;;;25.00;82.80;;;;;;5034961;28;20496;-87
2022/06/18 12:34:44;;;;;;;9.65;2.05;;;25.00;82.80;;;;;;5052820;28;20096;-86
2022/06/18 12:37:48;;;;;;;10.15;1.55;;;25.10;82.80;;;;;;5034868;28;20032;-87
2022/06/18 12:40:37;;;;;;;6.22;1.50;;;25.10;82.80;;;;;;5034714;28;20497;-87
2022/06/18 12:43:12;;;;;;;8.80;2.03;;;25.20;83.60;;;;;;5034955;28;20049;-87
2022/06/18 12:45:52;;;;;;;8.25;2.15;;;25.20;82.80;;;;;;5055326;28;20024;-87
2022/06/18 12:48:31;;;;;;;7.22;1.85;;;25.20;82.80;;;;;;5038743;28;20021;-88
2022/06/18 12:51:32;;;;;;;12.82;2.20;;;25.30;82.70;;;;;;5038857;28;20025;-87
2022/06/18 12:54:39;;;;;;;10.93;2.00;;;25.40;82.60;;;;;;4969403;28;20564;-86
2022/06/18 12:57:26;;;;;;;9.40;2.17;;;25.40;82.30;;;;;;5012441;28;20041;-87
2022/06/18 13:00:18;;;;;;;12.23;2.30;;;25.50;83.00;;;;;;5038529;28;20021;-87
2022/06/18 13:03:02;;;;;;;14.60;2.03;;;25.60;82.50;;;;;;5038625;28;20108;-87
2022/06/18 13:05:41;;;;;;;;;;;25.60;82.20;;;;;;5038930;28;20028;-87
2022/06/18 13:08:42;;;;;;;11.52;2.08;;;25.70;82.20;;;;;;5038446;28;20372;-88
2022/06/18 13:11:16;;;;;;;11.65;2.17;;;25.80;82.00;;;;;;4996897;28;20029;-88
2022/06/18 13:14:03;;;;;;;13.05;2.40;;;25.90;81.80;;;;;;5056243;28;20021;-87
2022/06/18 13:16:58;;;;;;;8.32;2.10;;;26.00;81.80;;;;;;5056362;28;20503;-88
2022/06/18 13:19:34;;;;;;;9.77;2.58;;;26.10;81.50;;;;;;5038230;28;20105;-87
2022/06/18 13:22:01;;;;;;;10.20;2.20;;;26.20;81.40;;;;;;5038175;28;20025;-88
2022/06/18 13:30:40;;;;;;;12.15;3.20;;;26.50;80.80;;;;;;5056770;28;20064;-87
2022/06/18 13:33:24;;;;;;;13.13;2.53;;;26.60;80.60;;;;;;5025621;28;20044;-87